Time;durP1;ratioP1;P1;durP2;ratioP2;P2;SDS_P1;SDS_P2;PMS_P1;PMS_P2;Temp;Humidity;BMP_temperature;BMP_pressure;BME280_temperature;BME280_humidity;BME280_pressure;Samples;Min_cycle;Max_cycle;Signal;HPM_P1;HPM_P2
2022/09/26 00:01:27;;;;;;;3.65;1.00;;;15.20;94.50;;;;;;5048709;28;20256;-47
2022/09/26 00:03:56;;;;;;;3.47;1.10;;;15.20;94.40;;;;;;5052811;28;20207;-48
2022/09/26 00:06:23;;;;;;;3.83;1.30;;;15.20;94.30;;;;;;5055461;28;20187;-44
2022/09/26 00:08:50;;;;;;;3.72;1.20;;;15.20;94.10;;;;;;5053794;28;20746;-44
2022/09/26 00:11:20;;;;;;;4.60;1.10;;;15.20;94.10;;;;;;5041937;28;20222;-43
2022/09/26 00:13:46;;;;;;;4.90;1.17;;;15.20;94.00;;;;;;5031272;28;20544;-44
2022/09/26 00:16:14;;;;;;;4.40;0.98;;;15.20;93.90;;;;;;5050597;28;20190;-43
2022/09/26 00:18:40;;;;;;;4.10;1.00;;;15.20;93.70;;;;;;5055353;28;20206;-45
2022/09/26 00:21:09;;;;;;;5.35;1.42;;;15.20;93.70;;;;;;5054329;28;20187;-48
2022/09/26 00:23:36;;;;;;;3.80;1.10;;;15.20;93.80;;;;;;5054500;28;20176;-46
2022/09/26 00:26:02;;;;;;;4.53;1.13;;;15.20;93.80;;;;;;5050990;28;20192;-48
2022/09/26 00:28:29;;;;;;;4.38;1.00;;;15.20;93.80;;;;;;5055086;28;20319;-47
2022/09/26 00:30:55;;;;;;;4.97;1.20;;;15.20;93.90;;;;;;5055059;28;20182;-42
2022/09/26 00:33:22;;;;;;;4.78;0.90;;;15.20;94.00;;;;;;5054993;28;20221;-46
2022/09/26 00:35:50;;;;;;;2.72;1.17;;;15.20;94.50;;;;;;5053465;28;20179;-42
2022/09/26 00:38:16;;;;;;;5.30;1.50;;;15.20;94.30;;;;;;5037567;28;20283;-44
2022/09/26 00:40:41;;;;;;;5.07;1.38;;;15.20;94.50;;;;;;5054989;28;20250;-43
2022/09/26 00:43:31;;;;;;;8.43;1.60;;;15.20;94.70;;;;;;5053704;28;20233;-44
2022/09/26 00:46:23;;;;;;;4.57;1.40;;;15.20;94.90;;;;;;5048313;28;20190;-45
2022/09/26 00:49:25;;;;;;;4.60;1.30;;;15.20;95.00;;;;;;5054708;28;20230;-42
2022/09/26 00:52:01;;;;;;;6.78;1.50;;;15.20;95.30;;;;;;5052867;28;20587;-44
2022/09/26 00:54:29;;;;;;;3.85;1.50;;;15.20;95.10;;;;;;5054844;28;20551;-49
2022/09/26 00:56:59;;;;;;;3.67;1.08;;;15.20;95.20;;;;;;5035565;28;20183;-46
2022/09/26 00:59:33;;;;;;;9.35;1.20;;;15.20;95.30;;;;;;5036650;28;20175;-47
2022/09/26 01:01:59;;;;;;;5.03;1.45;;;15.20;95.40;;;;;;5054425;28;20223;-42
2022/09/26 01:04:27;;;;;;;5.13;1.27;;;15.20;95.50;;;;;;5054559;28;20183;-49
2022/09/26 01:06:56;;;;;;;5.88;1.40;;;15.20;95.50;;;;;;5032062;28;20180;-44
2022/09/26 01:09:22;;;;;;;3.67;1.30;;;15.20;95.60;;;;;;5021179;28;20207;-45
2022/09/26 01:11:48;;;;;;;4.93;1.25;;;15.20;95.60;;;;;;5036884;28;20176;-47
2022/09/26 01:14:19;;;;;;;1.85;1.23;;;15.20;95.70;;;;;;5036895;28;20167;-43
2022/09/26 01:16:49;;;;;;;8.10;1.30;;;15.10;95.70;;;;;;5052702;28;20636;-43
2022/09/26 01:19:46;;;;;;;9.40;1.30;;;15.20;95.70;;;;;;5022162;28;20621;-44
2022/09/26 01:22:28;;;;;;;4.25;1.40;;;15.10;95.70;;;;;;5035390;28;20551;-44
2022/09/26 01:25:06;;;;;;;4.03;1.23;;;15.10;95.90;;;;;;5034197;28;20167;-49
2022/09/26 01:27:40;;;;;;;6.55;1.42;;;15.10;96.10;;;;;;5016503;28;20218;-49
2022/09/26 01:30:22;;;;;;;7.68;1.20;;;15.10;96.30;;;;;;5050440;28;20700;-45
2022/09/26 01:33:11;;;;;;;6.13;1.60;;;15.00;96.40;;;;;;5034378;28;20273;-46
2022/09/26 01:35:55;;;;;;;6.22;1.23;;;15.00;96.70;;;;;;5020094;28;20182;-48
2022/09/26 01:38:48;;;;;;;5.75;1.30;;;15.00;97.10;;;;;;5047729;28;20187;-48
2022/09/26 01:41:16;;;;;;;7.22;1.55;;;14.90;97.60;;;;;;5035956;28;20183;-47
2022/09/26 01:43:55;;;;;;;11.38;1.90;;;14.90;98.20;;;;;;5053988;28;20209;-45
2022/09/26 01:46:57;;;;;;;18.25;2.28;;;14.80;98.80;;;;;;5047045;28;20171;-48
2022/09/26 01:49:38;;;;;;;5.10;1.50;;;14.60;99.50;;;;;;4937095;29;20242;-42
2022/09/26 01:52:10;;;;;;;3.42;1.48;;;14.60;99.90;;;;;;5042835;28;20702;-48
2022/09/26 01:54:45;;;;;;;4.40;1.20;;;14.50;99.90;;;;;;5038012;28;20179;-45
2022/09/26 01:57:20;;;;;;;8.13;1.80;;;14.40;99.90;;;;;;5047812;28;20167;-50
2022/09/26 01:59:54;;;;;;;4.53;1.42;;;14.40;99.90;;;;;;5045124;28;20181;-43
2022/09/26 02:02:28;;;;;;;5.97;1.58;;;14.40;99.90;;;;;;5051685;28;20226;-43
2022/09/26 02:05:06;;;;;;;6.32;1.85;;;14.30;99.90;;;;;;5018398;28;20170;-43
2022/09/26 02:07:55;;;;;;;6.40;1.65;;;14.30;99.90;;;;;;5033697;28;20207;-44
2022/09/26 02:10:27;;;;;;;4.43;1.45;;;14.20;99.90;;;;;;5029930;28;20210;-47
2022/09/26 02:13:01;;;;;;;6.60;1.45;;;14.20;99.90;;;;;;5050341;28;20187;-45
2022/09/26 02:15:31;;;;;;;5.13;1.60;;;14.20;99.90;;;;;;5035314;28;20297;-47
2022/09/26 02:18:10;;;;;;;7.05;1.63;;;14.20;99.90;;;;;;5051844;28;20183;-43
2022/09/26 02:20:39;;;;;;;4.28;1.58;;;14.10;99.90;;;;;;5034872;28;20198;-45
2022/09/26 02:23:05;;;;;;;6.88;1.60;;;14.10;99.90;;;;;;5035490;28;20248;-47
2022/09/26 02:25:33;;;;;;;5.95;1.90;;;14.10;99.90;;;;;;5052737;28;20626;-47
2022/09/26 02:27:59;;;;;;;3.80;1.60;;;14.10;99.90;;;;;;5034192;28;20207;-47
2022/09/26 02:30:25;;;;;;;3.95;1.40;;;14.10;99.90;;;;;;5046534;28;20187;-42
2022/09/26 02:32:51;;;;;;;6.28;1.52;;;14.10;99.90;;;;;;5034642;28;20213;-46
2022/09/26 02:38:04;;;;;;;4.80;1.60;;;14.00;99.90;;;;;;5035259;28;20187;-43
2022/09/26 02:40:45;;;;;;;5.88;1.95;;;14.00;99.90;;;;;;5028913;28;20201;-43
2022/09/26 02:43:33;;;;;;;5.47;1.83;;;14.00;99.90;;;;;;5046953;28;20257;-42
2022/09/26 02:46:13;;;;;;;7.43;2.00;;;14.00;99.90;;;;;;5035027;28;20262;-42
2022/09/26 02:48:45;;;;;;;4.95;2.03;;;14.00;99.90;;;;;;5049817;28;20199;-43
2022/09/26 02:51:36;;;;;;;5.60;2.03;;;14.00;99.90;;;;;;5026579;28;20183;-43
2022/09/26 02:54:50;;;;;;;7.30;2.30;;;14.00;99.90;;;;;;5052646;28;20270;-44
2022/09/26 02:57:35;;;;;;;7.32;2.13;;;13.90;99.90;;;;;;4963550;28;20306;-44
2022/09/26 03:00:09;;;;;;;7.07;2.38;;;13.90;99.90;;;;;;5032472;28;20579;-45
2022/09/26 03:03:11;;;;;;;5.95;2.72;;;13.90;99.90;;;;;;5033986;28;20230;-49
2022/09/26 03:05:40;;;;;;;8.52;2.65;;;13.90;99.90;;;;;;5030778;28;20253;-43
2022/09/26 03:08:10;;;;;;;6.20;2.47;;;13.90;99.90;;;;;;5052329;28;20194;-44
2022/09/26 03:10:39;;;;;;;11.52;2.78;;;13.80;99.90;;;;;;5052544;28;20178;-45
2022/09/26 03:13:11;;;;;;;8.43;2.70;;;13.90;99.90;;;;;;5015972;28;20180;-45
2022/09/26 03:15:39;;;;;;;7.82;2.65;;;13.80;99.90;;;;;;5047265;28;20175;-42
2022/09/26 03:18:10;;;;;;;6.63;2.40;;;13.80;99.90;;;;;;5034469;28;20300;-47
2022/09/26 03:20:36;;;;;;;10.55;2.80;;;13.80;99.90;;;;;;5034679;28;20209;-44
2022/09/26 03:23:03;;;;;;;6.32;2.60;;;13.80;99.90;;;;;;5028095;28;20626;-43
2022/09/26 03:25:30;;;;;;;9.73;2.50;;;13.90;99.90;;;;;;5015255;28;20235;-42
2022/09/26 03:28:01;;;;;;;5.05;2.17;;;13.80;99.90;;;;;;5034319;28;20211;-47
2022/09/26 03:30:28;;;;;;;9.70;2.42;;;13.80;99.90;;;;;;5052284;28;20180;-46
2022/09/26 03:33:13;;;;;;;7.05;2.28;;;13.80;99.90;;;;;;5047663;28;20225;-54
2022/09/26 03:35:38;;;;;;;8.15;2.50;;;13.90;99.90;;;;;;5051048;28;20638;-45
2022/09/26 03:38:04;;;;;;;10.27;2.40;;;13.90;99.90;;;;;;5018296;28;20627;-42
2022/09/26 03:40:35;;;;;;;6.50;2.28;;;13.90;99.90;;;;;;5022028;28;20634;-47
2022/09/26 03:43:23;;;;;;;7.32;2.28;;;13.80;99.90;;;;;;5043351;28;20190;-42
2022/09/26 03:45:50;;;;;;;7.55;2.28;;;13.80;99.90;;;;;;5038211;28;20238;-46
2022/09/26 03:48:20;;;;;;;6.38;1.95;;;13.80;99.90;;;;;;5037804;28;20215;-44
2022/09/26 03:50:46;;;;;;;7.03;2.83;;;13.80;99.90;;;;;;5037547;28;20195;-46
2022/09/26 03:53:12;;;;;;;6.13;2.00;;;13.80;99.90;;;;;;5036129;28;20175;-47
2022/09/26 03:55:38;;;;;;;7.65;2.13;;;13.70;99.90;;;;;;5051811;28;20237;-48
2022/09/26 03:58:04;;;;;;;7.32;2.20;;;13.70;99.90;;;;;;5037815;28;20183;-47
2022/09/26 04:00:37;;;;;;;7.47;1.92;;;13.60;99.90;;;;;;5038215;28;20171;-41
2022/09/26 04:03:04;;;;;;;6.00;1.85;;;13.60;99.90;;;;;;5037499;28;20222;-47
2022/09/26 04:05:35;;;;;;;7.03;2.17;;;13.50;99.90;;;;;;5019990;28;20172;-51
2022/09/26 04:08:01;;;;;;;6.72;2.30;;;13.40;99.90;;;;;;5034150;28;20207;-45
2022/09/26 04:10:28;;;;;;;5.13;2.13;;;13.40;99.90;;;;;;5039827;28;20546;-43
2022/09/26 04:12:55;;;;;;;6.85;2.10;;;13.40;99.90;;;;;;5041579;28;20194;-43
2022/09/26 04:15:23;;;;;;;7.38;2.10;;;13.30;99.90;;;;;;5030016;28;20184;-49
2022/09/26 04:17:55;;;;;;;4.10;1.80;;;13.30;99.90;;;;;;5020532;28;20188;-46
2022/09/26 04:20:23;;;;;;;13.85;2.47;;;13.20;99.90;;;;;;5037212;28;20187;-45
2022/09/26 04:22:49;;;;;;;10.27;2.40;;;13.20;99.90;;;;;;5036651;28;20190;-46
2022/09/26 04:25:15;;;;;;;8.00;2.28;;;13.10;99.90;;;;;;5051462;28;20238;-45
2022/09/26 04:27:41;;;;;;;9.65;2.20;;;13.10;99.90;;;;;;5016843;28;20623;-45
2022/09/26 04:30:08;;;;;;;7.65;2.40;;;13.00;99.90;;;;;;5036686;28;20193;-45
2022/09/26 04:32:41;;;;;;;4.93;2.38;;;13.00;99.90;;;;;;5037443;28;20228;-43
2022/09/26 04:35:26;;;;;;;7.30;2.55;;;13.00;99.90;;;;;;5054381;28;20257;-47
2022/09/26 04:37:52;;;;;;;8.73;2.55;;;13.00;99.90;;;;;;5047466;28;20325;-45
2022/09/26 04:40:18;;;;;;;6.15;2.45;;;12.90;99.90;;;;;;5022081;28;20188;-46
2022/09/26 04:42:57;;;;;;;7.85;2.63;;;13.00;99.90;;;;;;5030842;28;20394;-45
2022/09/26 04:45:24;;;;;;;13.70;2.78;;;13.00;99.90;;;;;;5034339;28;20177;-46
2022/09/26 04:47:50;;;;;;;4.90;2.00;;;12.90;99.90;;;;;;5028875;28;20211;-47
2022/09/26 04:50:35;;;;;;;4.05;2.17;;;12.90;99.90;;;;;;5040224;28;20198;-54
2022/09/26 04:53:06;;;;;;;7.38;2.42;;;12.80;99.90;;;;;;5036045;28;20206;-48
2022/09/26 04:55:38;;;;;;;4.22;2.67;;;12.90;99.90;;;;;;5036382;28;20191;-52
2022/09/26 04:58:03;;;;;;;5.95;2.45;;;12.90;99.90;;;;;;5033046;28;20194;-49
2022/09/26 05:00:30;;;;;;;7.88;2.70;;;12.90;99.90;;;;;;5035185;28;20662;-54
2022/09/26 05:03:01;;;;;;;8.10;2.50;;;12.80;99.90;;;;;;5053241;28;20231;-52
2022/09/26 05:05:29;;;;;;;4.70;2.50;;;12.80;99.90;;;;;;5054310;28;20705;-42
2022/09/26 05:07:56;;;;;;;7.03;2.60;;;12.80;99.90;;;;;;5051259;28;20571;-42
2022/09/26 05:10:23;;;;;;;8.38;2.67;;;12.80;99.90;;;;;;5002797;28;20191;-44
2022/09/26 05:12:58;;;;;;;10.65;2.92;;;12.80;99.90;;;;;;5036933;28;20179;-42
2022/09/26 05:15:24;;;;;;;15.40;2.88;;;12.90;99.90;;;;;;5036595;28;20168;-44
2022/09/26 05:18:00;;;;;;;6.10;2.50;;;12.90;99.90;;;;;;5037250;28;20302;-45
2022/09/26 05:20:30;;;;;;;7.35;2.60;;;12.80;99.90;;;;;;5045536;28;21995;-49
2022/09/26 05:22:58;;;;;;;9.85;2.92;;;12.80;99.90;;;;;;5034995;28;20176;-48
2022/09/26 05:28:14;;;;;;;8.13;3.00;;;12.80;99.90;;;;;;5034936;28;20210;-52
2022/09/26 05:30:39;;;;;;;6.85;2.47;;;12.80;99.90;;;;;;5047211;28;20183;-49
2022/09/26 05:33:07;;;;;;;7.75;2.70;;;12.80;99.90;;;;;;5035565;28;20638;-47
2022/09/26 05:35:34;;;;;;;8.07;2.72;;;12.80;99.90;;;;;;5052788;28;20189;-45
2022/09/26 05:38:01;;;;;;;5.88;2.97;;;12.70;99.90;;;;;;5036351;28;20218;-49
2022/09/26 05:43:13;;;;;;;9.02;2.90;;;12.80;99.90;;;;;;5050847;28;20286;-46
2022/09/26 05:45:39;;;;;;;7.50;2.83;;;12.80;99.90;;;;;;5034890;28;20621;-47
2022/09/26 05:48:08;;;;;;;8.73;3.10;;;12.70;99.90;;;;;;5035602;28;20225;-50
2022/09/26 05:50:36;;;;;;;11.73;2.67;;;12.80;99.90;;;;;;5028695;28;20211;-41
2022/09/26 05:53:02;;;;;;;8.88;3.03;;;12.80;99.90;;;;;;5015686;28;20219;-44
2022/09/26 05:55:28;;;;;;;8.65;2.95;;;12.90;99.90;;;;;;5034511;28;20183;-45
2022/09/26 05:58:14;;;;;;;6.25;2.80;;;12.80;99.90;;;;;;5050326;28;20202;-47
2022/09/26 06:01:15;;;;;;;13.55;2.88;;;12.80;99.90;;;;;;5040891;28;20459;-48
2022/09/26 06:03:45;;;;;;;13.75;3.40;;;12.80;99.90;;;;;;5031875;28;20226;-48
2022/09/26 06:06:21;;;;;;;8.95;2.70;;;12.80;99.90;;;;;;5022815;28;20191;-45
2022/09/26 06:08:53;;;;;;;10.77;3.63;;;12.90;99.90;;;;;;5032242;28;20656;-47
2022/09/26 06:11:28;;;;;;;8.00;3.33;;;12.80;99.90;;;;;;5039166;28;20191;-46
2022/09/26 06:13:54;;;;;;;8.20;2.85;;;12.90;99.90;;;;;;5042225;28;20186;-47
2022/09/26 06:16:20;;;;;;;10.73;2.90;;;12.90;99.90;;;;;;5034288;28;20593;-45
2022/09/26 06:18:48;;;;;;;6.78;3.30;;;12.90;99.90;;;;;;5032477;28;20671;-43
2022/09/26 06:21:16;;;;;;;5.50;3.08;;;12.90;99.90;;;;;;5048922;28;20193;-45
2022/09/26 06:23:42;;;;;;;9.35;2.97;;;12.90;99.90;;;;;;5028598;28;20186;-46
2022/09/26 06:26:20;;;;;;;7.18;2.80;;;12.90;99.90;;;;;;5033120;28;20260;-50
2022/09/26 06:28:47;;;;;;;9.52;3.05;;;12.90;99.90;;;;;;5044279;28;20218;-43
2022/09/26 06:31:15;;;;;;;7.55;2.95;;;12.80;99.90;;;;;;5032669;28;20187;-46
2022/09/26 06:34:01;;;;;;;7.00;2.85;;;12.80;99.90;;;;;;5001743;28;20203;-44
2022/09/26 06:36:35;;;;;;;9.25;3.10;;;12.80;99.90;;;;;;5021696;28;20188;-42
2022/09/26 06:39:01;;;;;;;9.82;3.17;;;12.80;99.90;;;;;;5045901;28;20184;-44
2022/09/26 06:41:31;;;;;;;5.30;2.72;;;12.80;99.90;;;;;;5025388;28;20183;-43
2022/09/26 06:43:57;;;;;;;10.55;3.60;;;12.80;99.90;;;;;;5031638;28;20234;-42
2022/09/26 06:46:46;;;;;;;12.68;3.28;;;12.80;99.90;;;;;;5032677;28;20205;-48
2022/09/26 06:49:14;;;;;;;12.45;3.38;;;12.80;99.90;;;;;;5027118;28;20225;-44
2022/09/26 06:51:42;;;;;;;13.82;3.47;;;12.80;99.90;;;;;;5019153;28;20179;-46
2022/09/26 06:54:09;;;;;;;9.27;2.83;;;12.90;99.90;;;;;;5033174;28;20195;-49
2022/09/26 06:56:34;;;;;;;12.43;3.28;;;12.80;99.90;;;;;;5020437;28;20183;-44
2022/09/26 06:59:01;;;;;;;9.60;3.45;;;12.90;99.90;;;;;;5026267;28;20202;-45
2022/09/26 07:01:32;;;;;;;12.68;3.30;;;13.00;99.90;;;;;;5045657;28;20187;-43
2022/09/26 07:04:08;;;;;;;9.80;4.00;;;12.90;99.90;;;;;;5047040;28;20524;-45
2022/09/26 07:06:43;;;;;;;12.10;3.28;;;12.90;99.90;;;;;;5015728;28;20205;-50
2022/09/26 07:09:09;;;;;;;11.55;3.30;;;12.90;99.90;;;;;;5036421;28;20216;-41
2022/09/26 07:11:52;;;;;;;11.57;3.33;;;13.00;99.90;;;;;;5045861;28;20212;-47
2022/09/26 07:14:18;;;;;;;7.20;3.33;;;12.90;99.90;;;;;;5043754;28;20187;-44
2022/09/26 07:16:53;;;;;;;9.27;3.35;;;12.90;99.90;;;;;;5017209;28;20657;-48
2022/09/26 07:19:37;;;;;;;10.85;3.30;;;12.90;99.90;;;;;;5019525;28;20540;-44
2022/09/26 07:22:06;;;;;;;12.60;3.45;;;12.90;99.90;;;;;;5031157;28;20563;-48
2022/09/26 07:24:49;;;;;;;11.90;3.70;;;12.90;99.90;;;;;;5052978;28;20183;-46
2022/09/26 07:27:18;;;;;;;12.35;3.58;;;12.90;99.90;;;;;;5037253;28;20191;-44
2022/09/26 07:29:46;;;;;;;12.18;3.80;;;12.90;99.90;;;;;;5017685;28;20713;-50
2022/09/26 07:32:13;;;;;;;16.00;4.68;;;12.90;99.90;;;;;;5051928;28;20195;-46
2022/09/26 07:34:47;;;;;;;11.90;4.22;;;12.90;99.90;;;;;;5036999;28;20265;-45
2022/09/26 07:37:16;;;;;;;11.85;4.05;;;12.80;99.90;;;;;;5037350;28;20614;-47
2022/09/26 07:39:44;;;;;;;12.13;3.92;;;12.80;99.90;;;;;;5019304;28;20201;-49
2022/09/26 07:42:10;;;;;;;9.50;3.95;;;12.70;99.90;;;;;;5036486;28;20192;-54
2022/09/26 07:44:36;;;;;;;14.95;4.18;;;12.60;99.90;;;;;;5054466;28;20188;-47
2022/09/26 07:52:55;;;;;;;14.10;4.70;;;12.40;99.90;;;;;;5025497;28;20191;-50
2022/09/26 07:55:26;;;;;;;8.82;4.70;;;12.30;99.90;;;;;;5051187;28;20215;-51
2022/09/26 07:58:10;;;;;;;8.65;4.32;;;12.30;99.90;;;;;;5038686;28;20199;-45
2022/09/26 08:00:54;;;;;;;12.05;6.18;;;12.30;99.90;;;;;;5038935;28;20209;-51
2022/09/26 08:03:46;;;;;;;13.45;4.85;;;12.20;99.90;;;;;;5048912;28;20326;-50
2022/09/26 08:06:22;;;;;;;11.73;5.00;;;12.20;99.90;;;;;;5036674;28;20236;-48
2022/09/26 08:08:54;;;;;;;9.48;5.20;;;12.10;99.90;;;;;;5025944;28;20238;-50
2022/09/26 08:11:40;;;;;;;15.70;5.90;;;12.10;99.90;;;;;;5025257;28;20209;-54
2022/09/26 08:14:13;;;;;;;10.80;5.43;;;12.10;99.90;;;;;;5045182;28;20183;-53
2022/09/26 08:16:58;;;;;;;13.82;5.80;;;12.10;99.90;;;;;;5033415;28;20203;-51
2022/09/26 08:19:24;;;;;;;11.52;6.05;;;12.20;99.90;;;;;;5029280;28;20219;-49
2022/09/26 08:21:50;;;;;;;14.20;6.07;;;12.10;99.90;;;;;;5052138;28;20270;-46
2022/09/26 08:24:19;;;;;;;11.70;5.72;;;12.10;99.90;;;;;;5004107;28;20180;-47
2022/09/26 08:27:21;;;;;;;15.55;6.72;;;12.10;99.90;;;;;;5032451;28;20187;-47
2022/09/26 08:29:49;;;;;;;16.65;6.60;;;12.10;99.90;;;;;;5045115;28;20211;-47
2022/09/26 08:32:17;;;;;;;16.33;6.72;;;12.10;99.90;;;;;;5049077;28;20197;-52
2022/09/26 08:34:43;;;;;;;22.48;7.35;;;12.20;99.90;;;;;;5039352;28;20588;-46
2022/09/26 08:37:28;;;;;;;14.55;7.35;;;12.20;99.90;;;;;;5039610;28;20279;-50
2022/09/26 08:40:13;;;;;;;13.75;6.78;;;12.20;99.90;;;;;;5046832;28;20210;-48
2022/09/26 08:43:35;;;;;;;11.88;6.75;;;12.30;99.90;;;;;;5053948;28;20630;-51
2022/09/26 08:50:08;;;;;;;14.95;7.50;;;12.40;99.90;;;;;;5049542;28;20245;-52
2022/09/26 08:52:49;;;;;;;13.43;6.82;;;12.40;99.90;;;;;;4987902;28;20191;-47
2022/09/26 08:55:21;;;;;;;13.77;6.22;;;12.40;99.90;;;;;;5036453;28;20217;-47
2022/09/26 08:57:55;;;;;;;14.90;6.45;;;12.40;99.90;;;;;;5052131;28;20290;-50
2022/09/26 09:00:24;;;;;;;17.83;6.78;;;12.40;99.90;;;;;;5017501;28;20308;-46
2022/09/26 09:03:06;;;;;;;14.30;7.30;;;12.40;99.90;;;;;;5019060;28;20297;-49
2022/09/26 09:05:39;;;;;;;13.63;7.07;;;12.50;99.90;;;;;;5032983;28;20191;-51
2022/09/26 09:08:12;;;;;;;10.68;6.82;;;12.50;99.90;;;;;;5031176;28;20273;-52
2022/09/26 09:10:57;;;;;;;9.63;6.00;;;12.50;99.90;;;;;;5034297;28;20587;-47
2022/09/26 09:13:31;;;;;;;16.42;6.88;;;12.50;99.90;;;;;;5018186;28;20270;-47
2022/09/26 09:16:52;;;;;;;12.88;6.35;;;12.40;99.90;;;;;;5031930;28;20229;-48
2022/09/26 09:19:52;;;;;;;14.13;6.65;;;12.40;99.90;;;;;;5040663;28;20698;-52
2022/09/26 09:22:56;;;;;;;11.68;5.93;;;12.30;99.90;;;;;;5013871;28;20736;-55
2022/09/26 09:25:48;;;;;;;9.80;6.18;;;12.30;99.90;;;;;;5044043;28;20522;-50
2022/09/26 09:29:13;;;;;;;10.82;5.90;;;12.30;99.90;;;;;;5029613;28;20231;-53
2022/09/26 09:31:48;;;;;;;10.48;6.50;;;12.30;99.90;;;;;;4971550;28;20268;-52
2022/09/26 09:34:39;;;;;;;11.02;5.88;;;12.30;99.90;;;;;;5030937;28;20599;-54
2022/09/26 09:37:35;;;;;;;8.55;5.80;;;12.20;99.90;;;;;;5028656;28;20234;-55
2022/09/26 09:40:28;;;;;;;15.85;7.07;;;12.20;99.90;;;;;;5019396;28;20180;-55
2022/09/26 09:43:06;;;;;;;9.68;5.85;;;12.20;99.90;;;;;;5028878;28;20198;-53
2022/09/26 09:45:46;;;;;;;10.77;6.25;;;12.20;99.90;;;;;;5031351;28;20194;-54
2022/09/26 09:48:14;;;;;;;11.85;7.53;;;12.30;99.90;;;;;;5047985;28;20208;-54
2022/09/26 09:51:04;;;;;;;14.60;7.05;;;12.30;99.90;;;;;;5030863;28;20203;-54
2022/09/26 09:54:09;;;;;;;13.63;7.72;;;12.30;99.90;;;;;;5015707;28;20566;-55
2022/09/26 09:57:16;;;;;;;12.45;7.18;;;12.30;99.90;;;;;;5028162;28;20248;-53
2022/09/26 10:00:01;;;;;;;11.98;6.65;;;12.30;99.90;;;;;;5001092;28;20283;-54
2022/09/26 10:02:46;;;;;;;8.23;6.00;;;12.30;99.90;;;;;;5024032;28;20587;-55
2022/09/26 10:05:27;;;;;;;11.25;6.18;;;12.30;99.90;;;;;;5010897;28;20617;-56
2022/09/26 10:07:58;;;;;;;8.52;4.20;;;12.30;99.90;;;;;;5012182;28;20255;-59
2022/09/26 10:11:11;;;;;;;5.28;3.33;;;12.40;99.90;;;;;;4994802;28;20517;-54
2022/09/26 10:14:12;;;;;;;5.00;3.80;;;12.40;99.90;;;;;;4984568;28;20181;-52
2022/09/26 10:17:08;;;;;;;4.72;3.10;;;12.50;99.90;;;;;;5008273;28;20499;-54
2022/09/26 10:19:42;;;;;;;5.97;3.17;;;12.50;99.90;;;;;;5018049;28;20682;-58
2022/09/26 10:22:18;;;;;;;5.90;2.90;;;12.60;99.90;;;;;;5019650;28;20266;-54
2022/09/26 10:24:46;;;;;;;8.07;3.45;;;12.60;99.90;;;;;;5012428;28;20191;-54
2022/09/26 10:27:33;;;;;;;11.00;5.05;;;12.60;99.90;;;;;;5014424;28;20239;-53
2022/09/26 10:30:30;;;;;;;24.92;9.25;;;12.70;99.90;;;;;;5023014;28;20189;-53
2022/09/26 10:33:03;;;;;;;8.98;4.13;;;12.90;99.90;;;;;;5010096;28;20207;-57
2022/09/26 10:36:03;;;;;;;10.55;4.18;;;13.00;99.90;;;;;;5000551;28;20188;-52
2022/09/26 10:38:30;;;;;;;16.50;4.03;;;13.10;99.90;;;;;;5011125;28;20691;-52
2022/09/26 10:41:05;;;;;;;12.68;4.50;;;13.20;99.90;;;;;;5010534;28;20176;-52
2022/09/26 10:43:36;;;;;;;10.27;4.55;;;13.30;99.90;;;;;;5021551;28;20676;-54
2022/09/26 10:46:25;;;;;;;12.07;4.20;;;13.50;99.90;;;;;;4981519;28;20284;-53
2022/09/26 10:49:13;;;;;;;12.27;4.15;;;13.60;99.90;;;;;;5012291;28;20211;-52
2022/09/26 10:52:13;;;;;;;14.32;4.40;;;13.70;99.90;;;;;;4971887;28;20193;-53
2022/09/26 10:54:52;;;;;;;16.20;3.78;;;13.70;99.90;;;;;;4999251;28;20181;-51
2022/09/26 10:57:22;;;;;;;17.30;4.13;;;13.80;99.90;;;;;;5010091;28;20184;-54
2022/09/26 10:59:50;;;;;;;21.80;4.20;;;13.80;99.90;;;;;;5011828;28;20184;-52
2022/09/26 11:02:20;;;;;;;24.13;4.35;;;13.80;99.90;;;;;;5031885;28;20223;-50
2022/09/26 11:07:41;;;;;;;16.83;3.92;;;13.90;99.90;;;;;;5021213;28;20270;-54
2022/09/26 11:10:23;;;;;;;18.13;3.38;;;13.90;99.90;;;;;;5025279;28;20217;-54
2022/09/26 11:13:37;;;;;;;22.73;4.00;;;13.90;99.90;;;;;;4997188;28;20191;-56
2022/09/26 11:16:12;;;;;;;15.88;3.67;;;13.90;99.90;;;;;;5035803;28;20271;-51
2022/09/26 11:18:57;;;;;;;18.25;3.72;;;14.00;99.90;;;;;;5011949;28;20180;-52
2022/09/26 11:21:57;;;;;;;18.58;3.63;;;14.00;99.90;;;;;;5036171;28;20695;-51
2022/09/26 11:24:36;;;;;;;19.48;3.40;;;14.00;99.90;;;;;;5039307;28;20187;-51
2022/09/26 11:27:29;;;;;;;18.40;3.38;;;14.00;99.90;;;;;;5046975;28;20180;-48
2022/09/26 11:30:20;;;;;;;22.42;3.78;;;14.10;99.90;;;;;;5047459;28;20207;-56
2022/09/26 11:33:05;;;;;;;16.33;3.42;;;14.10;99.90;;;;;;5031644;28;20184;-49
2022/09/26 11:36:13;;;;;;;22.13;4.28;;;14.20;99.90;;;;;;5026909;28;20200;-49
2022/09/26 11:38:46;;;;;;;19.60;4.10;;;14.30;99.90;;;;;;5030261;28;20196;-50
2022/09/26 11:41:45;;;;;;;19.80;3.67;;;14.30;99.90;;;;;;5025601;28;20188;-53
2022/09/26 11:44:43;;;;;;;24.00;3.85;;;14.30;99.90;;;;;;5020188;28;20659;-54
2022/09/26 11:47:56;;;;;;;14.95;3.42;;;14.40;99.90;;;;;;4999797;28;20331;-50
2022/09/26 11:51:13;;;;;;;23.25;3.90;;;14.40;99.90;;;;;;5035321;28;20183;-52
2022/09/26 11:53:44;;;;;;;21.95;3.72;;;14.40;99.90;;;;;;5028606;28;20183;-52
2022/09/26 11:56:52;;;;;;;17.15;3.70;;;14.50;99.90;;;;;;5029801;28;20184;-51
2022/09/26 11:59:40;;;;;;;18.05;3.58;;;14.50;99.90;;;;;;5034418;28;20176;-52
2022/09/26 12:02:31;;;;;;;24.65;4.00;;;14.50;99.90;;;;;;5029139;28;20260;-51
2022/09/26 12:05:02;;;;;;;19.65;3.90;;;14.50;99.90;;;;;;5035081;28;20172;-54
2022/09/26 12:07:42;;;;;;;27.38;3.95;;;14.50;99.90;;;;;;5037125;28;20199;-52
2022/09/26 12:10:25;;;;;;;21.13;3.40;;;14.50;99.90;;;;;;5037458;28;20214;-58
2022/09/26 12:13:14;;;;;;;21.73;4.07;;;14.50;99.90;;;;;;5043374;28;20694;-50
2022/09/26 12:16:08;;;;;;;21.50;3.95;;;14.60;99.90;;;;;;5054649;28;20210;-53
2022/09/26 12:18:52;;;;;;;16.88;3.22;;;14.50;99.90;;;;;;5055006;28;20182;-53
2022/09/26 12:25:10;;;;;;;25.30;3.75;;;14.50;99.90;;;;;;5028780;28;20631;-49
2022/09/26 12:27:47;;;;;;;14.45;3.38;;;14.40;99.90;;;;;;5039748;28;20596;-50
2022/09/26 12:30:20;;;;;;;18.27;3.08;;;14.30;99.90;;;;;;5051734;28;20242;-51
2022/09/26 12:33:20;;;;;;;17.88;3.55;;;14.20;99.90;;;;;;5053984;28;20164;-47
2022/09/26 12:36:36;;;;;;;15.02;3.70;;;14.20;99.90;;;;;;5037856;28;20180;-51
2022/09/26 12:39:44;;;;;;;14.77;3.63;;;14.10;99.90;;;;;;5043877;28;20183;-52
2022/09/26 12:42:25;;;;;;;19.42;4.03;;;14.00;99.90;;;;;;5042500;28;20245;-51
2022/09/26 12:45:01;;;;;;;22.80;3.70;;;13.90;99.90;;;;;;5048896;28;20187;-51
2022/09/26 12:47:37;;;;;;;20.88;5.03;;;13.90;99.90;;;;;;5048849;28;20258;-53
2022/09/26 12:50:29;;;;;;;20.75;4.95;;;13.90;99.90;;;;;;5043443;28;20191;-51
2022/09/26 12:53:10;;;;;;;16.05;4.03;;;13.90;99.90;;;;;;5033643;28;20164;-49
2022/09/26 12:55:39;;;;;;;20.90;4.28;;;14.00;99.90;;;;;;5039411;28;20181;-50
2022/09/26 12:58:37;;;;;;;16.73;3.72;;;14.00;99.90;;;;;;5034578;28;20643;-51
2022/09/26 13:01:28;;;;;;;18.98;3.90;;;14.00;99.90;;;;;;5034451;28;20186;-52
2022/09/26 13:03:57;;;;;;;21.95;4.38;;;14.00;99.90;;;;;;5054340;28;20241;-47
2022/09/26 13:06:57;;;;;;;21.70;4.15;;;14.10;99.90;;;;;;5053612;28;20266;-47
2022/09/26 13:09:31;;;;;;;22.40;4.55;;;14.10;99.90;;;;;;5025991;28;20237;-48
2022/09/26 13:12:30;;;;;;;22.38;5.00;;;14.20;99.90;;;;;;5048718;28;20183;-47
2022/09/26 13:15:36;;;;;;;22.63;4.53;;;14.20;99.90;;;;;;5047599;28;20207;-53
2022/09/26 13:18:31;;;;;;;14.82;4.47;;;14.40;99.90;;;;;;5039718;28;20189;-54
2022/09/26 13:21:04;;;;;;;17.02;4.95;;;14.50;99.90;;;;;;5039700;28;20188;-47
2022/09/26 13:23:36;;;;;;;23.25;4.82;;;14.50;99.90;;;;;;5053120;28;20233;-52
2022/09/26 13:26:27;;;;;;;21.20;4.68;;;14.60;99.90;;;;;;5043654;28;20201;-51
2022/09/26 13:29:02;;;;;;;18.40;4.40;;;14.70;99.90;;;;;;5053013;28;20207;-53
2022/09/26 13:32:00;;;;;;;21.45;5.10;;;14.70;99.90;;;;;;5052680;28;20183;-48
2022/09/26 13:35:02;;;;;;;20.65;4.80;;;14.80;99.90;;;;;;5008887;28;20568;-47
2022/09/26 13:37:59;;;;;;;27.70;4.88;;;15.00;99.90;;;;;;5052127;28;20186;-49
2022/09/26 13:40:44;;;;;;;24.17;4.38;;;15.30;99.90;;;;;;5052000;28;20188;-52
2022/09/26 13:43:24;;;;;;;28.88;5.22;;;15.60;99.90;;;;;;5054205;28;20600;-50
2022/09/26 13:46:14;;;;;;;22.83;4.63;;;15.90;99.90;;;;;;5047742;28;20186;-56
2022/09/26 13:49:18;;;;;;;25.17;4.85;;;16.10;99.90;;;;;;5044985;28;20203;-52
2022/09/26 13:51:53;;;;;;;19.38;3.70;;;16.20;99.90;;;;;;5052612;28;20189;-50
2022/09/26 13:54:19;;;;;;;21.45;4.25;;;16.30;99.90;;;;;;5052909;28;20182;-50
2022/09/26 13:56:48;;;;;;;24.67;3.80;;;16.30;99.90;;;;;;5047841;28;20636;-57
2022/09/26 13:59:14;;;;;;;17.38;4.20;;;16.30;99.90;;;;;;5043818;28;20202;-52
2022/09/26 14:02:15;;;;;;;20.83;3.85;;;16.20;99.90;;;;;;5052749;28;20232;-49